sensor_id;sensor_type;location;lat;lon;timestamp;P1;durP1;ratioP1;P2;durP2;ratioP2
24301;SDS011;12421;49.732;20.078;2024-03-08T00:08:23;34.10;;;24.20;;
24301;SDS011;12421;49.732;20.078;2024-03-08T00:18:27;37.40;;;23.60;;
24301;SDS011;12421;49.732;20.078;2024-03-08T00:28:30;30.20;;;21.30;;
24301;SDS011;12421;49.732;20.078;2024-03-08T00:38:33;33.60;;;23.40;;
24301;SDS011;12421;49.732;20.078;2024-03-08T00:48:37;32.60;;;22.00;;
24301;SDS011;12421;49.732;20.078;2024-03-08T00:58:40;29.90;;;20.80;;
24301;SDS011;12421;49.732;20.078;2024-03-08T01:08:44;32.70;;;22.80;;
24301;SDS011;12421;49.732;20.078;2024-03-08T01:18:48;34.80;;;21.30;;
24301;SDS011;12421;49.732;20.078;2024-03-08T01:28:51;28.10;;;19.10;;
24301;SDS011;12421;49.732;20.078;2024-03-08T01:38:54;27.60;;;18.80;;
24301;SDS011;12421;49.732;20.078;2024-03-08T01:48:57;31.50;;;21.60;;
24301;SDS011;12421;49.732;20.078;2024-03-08T01:59:04;27.40;;;19.40;;
24301;SDS011;12421;49.732;20.078;2024-03-08T02:09:08;29.70;;;20.10;;
24301;SDS011;12421;49.732;20.078;2024-03-08T02:19:12;28.60;;;18.20;;
24301;SDS011;12421;49.732;20.078;2024-03-08T02:29:15;26.20;;;18.80;;
24301;SDS011;12421;49.732;20.078;2024-03-08T02:39:18;27.90;;;18.10;;
24301;SDS011;12421;49.732;20.078;2024-03-08T02:49:22;27.10;;;18.50;;
24301;SDS011;12421;49.732;20.078;2024-03-08T02:59:26;30.70;;;19.90;;
24301;SDS011;12421;49.732;20.078;2024-03-08T03:09:29;31.80;;;19.50;;
24301;SDS011;12421;49.732;20.078;2024-03-08T03:19:35;30.40;;;20.30;;
24301;SDS011;12421;49.732;20.078;2024-03-08T03:29:39;32.70;;;21.20;;
24301;SDS011;12421;49.732;20.078;2024-03-08T03:39:45;32.70;;;21.20;;
24301;SDS011;12421;49.732;20.078;2024-03-08T03:49:52;29.50;;;20.30;;
24301;SDS011;12421;49.732;20.078;2024-03-08T03:59:57;29.80;;;20.30;;
24301;SDS011;12421;49.732;20.078;2024-03-08T04:10:02;31.70;;;20.90;;
24301;SDS011;12421;49.732;20.078;2024-03-08T04:20:06;35.60;;;21.40;;
24301;SDS011;12421;49.732;20.078;2024-03-08T04:30:13;29.50;;;20.60;;
24301;SDS011;12421;49.732;20.078;2024-03-08T04:40:17;29.30;;;21.10;;
24301;SDS011;12421;49.732;20.078;2024-03-08T04:50:22;31.30;;;21.00;;
24301;SDS011;12421;49.732;20.078;2024-03-08T05:00:25;30.80;;;20.40;;
24301;SDS011;12421;49.732;20.078;2024-03-08T05:10:28;30.20;;;20.70;;
24301;SDS011;12421;49.732;20.078;2024-03-08T05:20:31;33.90;;;22.40;;
24301;SDS011;12421;49.732;20.078;2024-03-08T05:30:35;33.00;;;21.10;;
24301;SDS011;12421;49.732;20.078;2024-03-08T05:40:39;35.90;;;21.90;;
24301;SDS011;12421;49.732;20.078;2024-03-08T05:50:43;32.80;;;20.60;;
24301;SDS011;12421;49.732;20.078;2024-03-08T06:00:46;34.70;;;21.40;;
24301;SDS011;12421;49.732;20.078;2024-03-08T06:10:54;31.20;;;20.40;;
24301;SDS011;12421;49.732;20.078;2024-03-08T06:20:57;34.90;;;22.30;;
24301;SDS011;12421;49.732;20.078;2024-03-08T06:31:01;29.70;;;19.60;;
24301;SDS011;12421;49.732;20.078;2024-03-08T06:41:05;28.90;;;20.10;;
24301;SDS011;12421;49.732;20.078;2024-03-08T06:51:09;32.10;;;20.40;;
24301;SDS011;12421;49.732;20.078;2024-03-08T07:01:14;32.20;;;19.00;;
24301;SDS011;12421;49.732;20.078;2024-03-08T07:11:18;34.80;;;19.50;;
24301;SDS011;12421;49.732;20.078;2024-03-08T07:21:21;26.50;;;17.90;;
24301;SDS011;12421;49.732;20.078;2024-03-08T07:31:25;25.80;;;17.40;;
24301;SDS011;12421;49.732;20.078;2024-03-08T07:41:28;29.00;;;20.60;;
24301;SDS011;12421;49.732;20.078;2024-03-08T07:51:32;31.10;;;19.30;;
24301;SDS011;12421;49.732;20.078;2024-03-08T08:01:37;27.20;;;20.00;;
24301;SDS011;12421;49.732;20.078;2024-03-08T08:11:41;31.40;;;20.60;;
24301;SDS011;12421;49.732;20.078;2024-03-08T08:21:46;26.30;;;19.50;;
24301;SDS011;12421;49.732;20.078;2024-03-08T08:31:49;34.60;;;21.50;;
24301;SDS011;12421;49.732;20.078;2024-03-08T08:41:53;32.80;;;21.20;;
24301;SDS011;12421;49.732;20.078;2024-03-08T08:51:58;32.40;;;21.60;;
24301;SDS011;12421;49.732;20.078;2024-03-08T09:02:14;33.60;;;22.10;;
24301;SDS011;12421;49.732;20.078;2024-03-08T09:12:20;31.00;;;21.20;;
24301;SDS011;12421;49.732;20.078;2024-03-08T09:22:23;30.50;;;21.80;;
24301;SDS011;12421;49.732;20.078;2024-03-08T09:32:27;31.20;;;21.00;;
24301;SDS011;12421;49.732;20.078;2024-03-08T09:42:31;32.40;;;22.00;;
24301;SDS011;12421;49.732;20.078;2024-03-08T09:52:38;31.60;;;21.40;;
24301;SDS011;12421;49.732;20.078;2024-03-08T10:02:42;32.50;;;23.60;;
24301;SDS011;12421;49.732;20.078;2024-03-08T10:12:48;30.80;;;20.90;;
24301;SDS011;12421;49.732;20.078;2024-03-08T10:22:52;33.00;;;24.40;;
24301;SDS011;12421;49.732;20.078;2024-03-08T10:33:12;34.00;;;22.70;;
24301;SDS011;12421;49.732;20.078;2024-03-08T10:43:18;33.70;;;22.80;;
24301;SDS011;12421;49.732;20.078;2024-03-08T10:53:30;30.50;;;21.90;;
24301;SDS011;12421;49.732;20.078;2024-03-08T11:13:47;30.40;;;21.60;;
24301;SDS011;12421;49.732;20.078;2024-03-08T11:24:06;36.60;;;24.60;;
24301;SDS011;12421;49.732;20.078;2024-03-08T11:34:15;33.80;;;22.00;;
24301;SDS011;12421;49.732;20.078;2024-03-08T11:44:19;31.00;;;20.50;;
24301;SDS011;12421;49.732;20.078;2024-03-08T11:54:23;33.00;;;21.70;;
24301;SDS011;12421;49.732;20.078;2024-03-08T12:04:26;29.00;;;20.70;;
24301;SDS011;12421;49.732;20.078;2024-03-08T12:14:30;31.00;;;22.10;;
24301;SDS011;12421;49.732;20.078;2024-03-08T12:24:34;28.90;;;19.00;;
24301;SDS011;12421;49.732;20.078;2024-03-08T12:34:40;31.70;;;21.40;;
24301;SDS011;12421;49.732;20.078;2024-03-08T12:44:44;27.90;;;20.40;;
24301;SDS011;12421;49.732;20.078;2024-03-08T12:54:49;30.10;;;21.90;;
24301;SDS011;12421;49.732;20.078;2024-03-08T13:04:52;30.20;;;21.50;;
24301;SDS011;12421;49.732;20.078;2024-03-08T13:15:02;31.10;;;21.60;;
24301;SDS011;12421;49.732;20.078;2024-03-08T13:25:08;33.40;;;22.70;;
24301;SDS011;12421;49.732;20.078;2024-03-08T13:35:16;33.90;;;23.20;;
24301;SDS011;12421;49.732;20.078;2024-03-08T13:45:27;40.70;;;26.10;;
24301;SDS011;12421;49.732;20.078;2024-03-08T13:55:31;37.30;;;24.70;;
24301;SDS011;12421;49.732;20.078;2024-03-08T14:05:39;42.70;;;25.60;;
24301;SDS011;12421;49.732;20.078;2024-03-08T14:15:44;38.30;;;25.10;;
24301;SDS011;12421;49.732;20.078;2024-03-08T14:25:49;38.10;;;26.90;;
24301;SDS011;12421;49.732;20.078;2024-03-08T14:35:55;35.40;;;25.10;;
24301;SDS011;12421;49.732;20.078;2024-03-08T14:45:58;39.80;;;26.50;;
24301;SDS011;12421;49.732;20.078;2024-03-08T14:56:01;39.70;;;24.40;;
24301;SDS011;12421;49.732;20.078;2024-03-08T15:06:05;43.00;;;24.30;;
24301;SDS011;12421;49.732;20.078;2024-03-08T15:16:11;41.00;;;26.80;;
24301;SDS011;12421;49.732;20.078;2024-03-08T15:26:20;40.90;;;27.10;;
24301;SDS011;12421;49.732;20.078;2024-03-08T15:36:29;36.80;;;25.60;;
24301;SDS011;12421;49.732;20.078;2024-03-08T15:46:34;40.00;;;28.10;;
24301;SDS011;12421;49.732;20.078;2024-03-08T15:56:39;45.30;;;28.80;;
24301;SDS011;12421;49.732;20.078;2024-03-08T16:06:42;39.00;;;26.40;;
24301;SDS011;12421;49.732;20.078;2024-03-08T16:16:47;43.50;;;27.80;;
24301;SDS011;12421;49.732;20.078;2024-03-08T16:26:51;39.80;;;24.10;;
24301;SDS011;12421;49.732;20.078;2024-03-08T16:36:55;38.70;;;22.80;;
24301;SDS011;12421;49.732;20.078;2024-03-08T16:47:01;44.60;;;27.70;;
24301;SDS011;12421;49.732;20.078;2024-03-08T16:57:05;58.80;;;30.50;;
24301;SDS011;12421;49.732;20.078;2024-03-08T17:07:08;52.60;;;31.60;;
24301;SDS011;12421;49.732;20.078;2024-03-08T17:17:11;73.50;;;43.10;;
24301;SDS011;12421;49.732;20.078;2024-03-08T17:27:15;56.70;;;34.30;;
24301;SDS011;12421;49.732;20.078;2024-03-08T17:37:18;93.10;;;48.00;;
24301;SDS011;12421;49.732;20.078;2024-03-08T17:47:22;95.00;;;46.50;;
24301;SDS011;12421;49.732;20.078;2024-03-08T17:57:25;60.00;;;32.80;;
24301;SDS011;12421;49.732;20.078;2024-03-08T18:07:28;77.00;;;41.60;;
24301;SDS011;12421;49.732;20.078;2024-03-08T18:17:31;82.60;;;41.40;;
24301;SDS011;12421;49.732;20.078;2024-03-08T18:27:56;82.30;;;38.10;;
24301;SDS011;12421;49.732;20.078;2024-03-08T18:38:16;73.50;;;39.50;;
24301;SDS011;12421;49.732;20.078;2024-03-08T18:48:22;78.30;;;42.30;;
24301;SDS011;12421;49.732;20.078;2024-03-08T18:58:25;91.60;;;50.10;;
24301;SDS011;12421;49.732;20.078;2024-03-08T19:08:47;72.90;;;40.80;;
24301;SDS011;12421;49.732;20.078;2024-03-08T19:18:55;73.20;;;42.80;;
24301;SDS011;12421;49.732;20.078;2024-03-08T19:28:58;61.90;;;34.70;;
24301;SDS011;12421;49.732;20.078;2024-03-08T19:39:07;76.80;;;39.20;;
24301;SDS011;12421;49.732;20.078;2024-03-08T19:49:13;75.80;;;42.60;;
24301;SDS011;12421;49.732;20.078;2024-03-08T19:59:20;67.80;;;39.20;;
24301;SDS011;12421;49.732;20.078;2024-03-08T20:09:27;85.20;;;44.50;;
24301;SDS011;12421;49.732;20.078;2024-03-08T20:19:31;67.50;;;37.60;;
24301;SDS011;12421;49.732;20.078;2024-03-08T20:29:34;89.00;;;50.40;;
24301;SDS011;12421;49.732;20.078;2024-03-08T20:39:39;88.50;;;47.80;;
24301;SDS011;12421;49.732;20.078;2024-03-08T20:49:42;96.80;;;50.50;;
24301;SDS011;12421;49.732;20.078;2024-03-08T20:59:46;102.80;;;55.40;;
24301;SDS011;12421;49.732;20.078;2024-03-08T21:09:49;101.70;;;55.70;;
24301;SDS011;12421;49.732;20.078;2024-03-08T21:19:58;102.00;;;56.90;;
24301;SDS011;12421;49.732;20.078;2024-03-08T21:30:01;100.70;;;57.50;;
24301;SDS011;12421;49.732;20.078;2024-03-08T21:40:04;103.60;;;57.20;;
24301;SDS011;12421;49.732;20.078;2024-03-08T21:50:13;93.20;;;51.90;;
24301;SDS011;12421;49.732;20.078;2024-03-08T22:00:21;93.50;;;53.70;;
24301;SDS011;12421;49.732;20.078;2024-03-08T22:10:28;77.30;;;44.00;;
24301;SDS011;12421;49.732;20.078;2024-03-08T22:20:32;67.20;;;38.30;;
24301;SDS011;12421;49.732;20.078;2024-03-08T22:30:35;65.80;;;39.30;;
24301;SDS011;12421;49.732;20.078;2024-03-08T22:40:40;61.50;;;35.50;;
24301;SDS011;12421;49.732;20.078;2024-03-08T22:50:45;57.40;;;33.70;;
24301;SDS011;12421;49.732;20.078;2024-03-08T23:00:48;49.50;;;29.40;;
24301;SDS011;12421;49.732;20.078;2024-03-08T23:11:05;51.60;;;29.90;;
24301;SDS011;12421;49.732;20.078;2024-03-08T23:21:13;53.60;;;30.40;;
24301;SDS011;12421;49.732;20.078;2024-03-08T23:31:16;57.30;;;32.10;;
24301;SDS011;12421;49.732;20.078;2024-03-08T23:41:20;59.50;;;32.00;;
24301;SDS011;12421;49.732;20.078;2024-03-08T23:51:23;61.20;;;32.60;;
